Time;durP1;ratioP1;P1;durP2;ratioP2;P2;SDS_P1;SDS_P2;PMS_P1;PMS_P2;Temp;Humidity;BMP_temperature;BMP_pressure;BME280_temperature;BME280_humidity;BME280_pressure;Samples;Min_cycle;Max_cycle;Signal;HPM_P1;HPM_P2
2022/07/15 00:00:17;;;;;;;;;;;;;;;15.26;77.91;101829.56;20860618;28;20043;-62
2022/07/15 00:10:38;;;;;;;11.03;1.50;;;;;;;15.27;74.83;101836.50;20852197;28;20305;-61
2022/07/15 00:21:00;;;;;;;5.32;1.40;;;;;;;15.19;75.26;101836.13;20850459;28;20045;-62
2022/07/15 00:31:21;;;;;;;7.95;1.00;;;;;;;15.21;74.76;101842.13;20850969;28;20148;-61
2022/07/15 00:41:43;;;;;;;;;;;;;;;15.09;77.50;101840.31;20849091;28;20412;-61
2022/07/15 00:52:06;;;;;;;8.00;1.27;;;;;;;15.04;74.46;101831.91;20854458;28;20400;-62
2022/07/15 01:02:30;;;;;;;8.18;1.45;;;;;;;15.16;74.65;101825.81;20851580;28;20045;-62
2022/07/15 01:12:53;;;;;;;5.00;1.00;;;;;;;15.30;74.30;101832.81;20832916;28;20141;-63
2022/07/15 01:23:16;;;;;;;10.80;1.40;;;;;;;15.30;75.07;101832.81;20849589;28;20049;-61
2022/07/15 01:33:38;;;;;;;6.00;1.13;;;;;;;15.19;74.29;101833.50;20843300;28;20079;-61
2022/07/15 01:44:00;;;;;;;8.85;1.25;;;;;;;15.09;75.51;101837.69;20852378;28;20608;-61
2022/07/15 01:54:22;;;;;;;4.70;1.13;;;;;;;15.11;75.50;101848.94;20845328;28;20042;-62
2022/07/15 02:04:44;;;;;;;8.20;1.30;;;;;;;15.20;75.92;101845.69;20850608;28;20045;-61
2022/07/15 02:15:06;;;;;;;8.48;1.40;;;;;;;15.22;76.84;101838.53;20848642;28;20055;-60
2022/07/15 02:25:29;;;;;;;6.45;1.33;;;;;;;15.25;77.25;101841.00;20840709;28;20053;-61
2022/07/15 02:35:51;;;;;;;9.18;1.23;;;;;;;15.05;79.59;101848.50;20845621;28;20055;-61
2022/07/15 02:46:13;;;;;;;;;;;;;;;15.06;84.19;101845.78;20855832;28;20044;-61
2022/07/15 02:56:34;;;;;;;8.50;1.25;;;;;;;15.06;78.65;101855.44;20836281;28;19948;-61
2022/07/15 03:06:56;;;;;;;10.52;2.03;;;;;;;15.02;79.53;101853.97;20848934;28;20043;-62
2022/07/15 03:17:18;;;;;;;;;;;;;;;14.96;85.76;101855.22;20832770;28;20530;-60
2022/07/15 03:27:39;;;;;;;;;;;;;;;14.86;86.78;101855.91;20840729;28;19921;-60
2022/07/15 03:38:01;;;;;;;5.93;1.27;;;;;;;14.75;81.51;101867.09;20830280;28;19925;-60
2022/07/15 03:48:22;;;;;;;10.57;1.45;;;;;;;14.77;80.85;101873.09;20831817;28;20486;-65
2022/07/15 03:58:44;;;;;;;;;;;;;;;14.85;87.13;101889.19;20837775;28;20049;-61
2022/07/15 04:09:07;;;;;;;7.63;1.37;;;;;;;14.84;80.33;101877.03;20840979;28;19931;-60
2022/07/15 04:19:29;;;;;;;6.90;1.50;;;;;;;14.96;79.96;101888.50;20852054;28;20132;-61
2022/07/15 04:29:50;;;;;;;7.35;1.10;;;;;;;15.06;78.52;101886.97;20850386;28;20051;-62
2022/07/15 04:40:12;;;;;;;4.18;1.08;;;;;;;15.14;77.98;101896.00;20852704;28;20068;-60
2022/07/15 04:50:46;;;;;;;7.22;1.08;;;;;;;15.25;77.10;101904.06;20842559;28;20390;-60
2022/07/15 05:01:08;;;;;;;8.43;1.23;;;;;;;15.31;76.66;101908.06;20841526;28;20041;-60
2022/07/15 05:11:29;;;;;;;5.85;1.17;;;;;;;15.63;76.19;101921.56;20842244;28;20099;-60
2022/07/15 05:21:51;;;;;;;6.25;1.10;;;;;;;15.74;75.20;101915.53;20841768;28;20041;-60
2022/07/15 05:32:12;;;;;;;12.32;1.20;;;;;;;15.88;75.80;101925.97;20845981;28;20041;-63
2022/07/15 05:42:34;;;;;;;3.95;0.90;;;;;;;15.89;75.78;101940.78;20832070;28;20465;-61
2022/07/15 05:52:56;;;;;;;;;;;;;;;15.88;74.99;101947.00;20837969;28;20046;-61
2022/07/15 06:03:18;;;;;;;;;;;;;;;15.93;76.13;101955.44;20842994;28;21070;-61
2022/07/15 06:13:40;;;;;;;;;;;;;;;15.88;76.56;101978.56;20846224;28;19920;-60
2022/07/15 06:24:01;;;;;;;;;;;;;;;15.98;76.55;101985.72;20839317;28;19952;-61
2022/07/15 06:34:23;;;;;;;;;;;;;;;16.12;75.48;101987.41;20836899;28;19931;-62
2022/07/15 06:44:45;;;;;;;;;;;;;;;16.19;75.81;101989.53;20837492;28;19920;-60
2022/07/15 06:55:06;;;;;;;;;;;;;;;16.07;79.87;101994.78;20837900;28;19931;-62
2022/07/15 07:05:28;;;;;;;;;;;;;;;16.23;77.37;101995.41;20841934;28;20378;-61
2022/07/15 07:15:50;;;;;;;;;;;;;;;16.41;74.91;101996.78;20831366;28;19921;-61
2022/07/15 07:26:12;;;;;;;;;;;;;;;16.66;74.22;101995.78;20844093;28;19932;-61
2022/07/15 07:36:33;;;;;;;;;;;;;;;16.76;72.85;101981.00;20837870;28;19921;-63
2022/07/15 07:46:54;;;;;;;;;;;;;;;16.90;72.59;101970.31;20842955;28;19925;-61
2022/07/15 07:57:17;;;;;;;;;;;;;;;17.18;74.01;101969.97;20853703;28;19925;-63
2022/07/15 08:07:38;;;;;;;;;;;;;;;17.35;71.65;101974.88;20859137;28;19928;-62
2022/07/15 08:18:01;;;;;;;;;;;;;;;17.71;70.81;101978.25;20828666;28;20638;-60
2022/07/15 08:28:23;;;;;;;;;;;;;;;17.61;71.32;101965.88;20855319;28;20393;-61
2022/07/15 08:39:05;;;;;;;;;;;;;;;17.84;69.00;101962.34;20850465;28;19924;-62
2022/07/15 08:49:29;;;;;;;;;;;;;;;18.25;67.94;101963.50;20853546;28;20385;-62
2022/07/15 08:59:54;;;;;;;;;;;;;;;18.07;67.75;101979.88;20851728;28;19975;-65
2022/07/15 09:10:15;;;;;;;;;;;;;;;17.65;72.61;101989.28;20839068;28;19921;-60
2022/07/15 09:20:37;;;;;;;;;;;;;;;17.45;73.04;101982.00;20846144;28;20342;-61
2022/07/15 09:41:41;;;;;;;;;;;;;;;16.47;85.67;102023.53;20852040;28;19921;-61
2022/07/15 09:52:07;;;;;;;;;;;;;;;16.16;92.34;102036.22;20848512;28;20281;-62
2022/07/15 10:02:29;;;;;;;;;;;;;;;15.74;89.41;102028.59;20840290;28;19967;-61
2022/07/15 10:13:05;;;;;;;;;;;;;;;15.72;92.78;102018.22;20856278;28;19928;-60
2022/07/15 10:23:30;;;;;;;;;;;;;;;16.01;88.81;102016.25;20845392;28;19927;-61
2022/07/15 10:34:07;;;;;;;;;;;;;;;16.45;87.20;101999.94;20845368;28;19928;-63
2022/07/15 10:44:29;;;;;;;;;;;;;;;17.09;86.46;101993.56;20839962;28;19928;-63
2022/07/15 10:54:59;;;;;;;;;;;;;;;17.54;84.10;101985.75;20845922;28;19921;-62
2022/07/15 11:05:21;;;;;;;;;;;;;;;17.86;81.35;101970.97;20825388;28;19921;-59
2022/07/15 11:15:44;;;;;;;;;;;;;;;18.41;77.98;101956.88;20841885;28;19957;-60
2022/07/15 11:26:05;;;;;;;;;;;;;;;18.73;74.56;101955.16;20841870;28;20008;-61
2022/07/15 11:36:27;;;;;;;2.38;0.43;;;;;;;19.68;70.20;101951.56;20832818;28;19927;-61
2022/07/15 11:46:50;;;;;;;0.57;0.13;;;;;;;18.82;71.61;101980.00;20835093;28;20478;-61
2022/07/15 11:57:14;;;;;;;0.70;0.20;;;;;;;17.75;78.44;101969.16;20840607;28;20093;-59
2022/07/15 12:07:40;;;;;;;1.85;0.40;;;;;;;17.60;79.07;101962.41;20836068;28;20037;-60
2022/07/15 12:18:02;;;;;;;3.10;0.43;;;;;;;18.05;77.25;101955.38;20837978;28;20045;-60
2022/07/15 12:28:32;;;;;;;0.63;0.20;;;;;;;18.60;75.78;101935.97;20834198;28;20049;-59
2022/07/15 12:39:09;;;;;;;1.42;0.40;;;;;;;19.06;74.80;101947.13;20848113;28;20644;-60
2022/07/15 12:49:54;;;;;;;4.45;0.47;;;;;;;18.81;74.54;101952.72;20859242;28;20063;-60
2022/07/15 13:00:22;;;;;;;1.10;0.40;;;;;;;18.85;72.14;101948.88;20847247;28;20045;-60
2022/07/15 13:10:47;;;;;;;1.95;0.32;;;;;;;19.10;69.81;101953.84;20829135;28;20041;-61
2022/07/15 13:21:08;;;;;;;4.55;0.60;;;;;;;19.15;70.39;101942.91;20822022;28;20047;-61
2022/07/15 13:31:30;;;;;;;2.63;0.30;;;;;;;19.66;66.27;101944.69;20832722;28;20053;-59
2022/07/15 13:41:51;;;;;;;2.83;0.45;;;;;;;20.10;64.76;101942.63;20824496;28;20046;-61
2022/07/15 13:52:13;;;;;;;2.85;0.40;;;;;;;20.14;64.69;101940.53;20832827;28;20049;-61
2022/07/15 14:02:35;;;;;;;5.13;1.17;;;;;;;18.91;78.73;101981.88;20808179;28;20047;-61
2022/07/15 14:12:57;;;;;;;2.45;0.80;;;;;;;17.57;85.75;101996.06;20819738;28;20045;-60
2022/07/15 14:23:18;;;;;;;3.90;0.80;;;;;;;17.25;86.24;101994.94;20820087;28;20072;-59
2022/07/15 14:33:41;;;;;;;1.38;0.70;;;;;;;17.08;86.85;101987.44;20814819;28;20124;-61
2022/07/15 14:44:03;;;;;;;0.95;0.55;;;;;;;17.11;85.06;101971.41;20806292;28;20045;-62
2022/07/15 14:54:25;;;;;;;3.13;0.63;;;;;;;17.06;86.61;101962.97;20815381;28;20045;-60
2022/07/15 15:04:46;;;;;;;2.38;0.80;;;;;;;17.23;85.79;101959.94;20804178;28;20517;-61
2022/07/15 15:15:08;;;;;;;1.20;0.60;;;;;;;17.39;82.50;101942.06;20807762;28;20048;-60
2022/07/15 15:36:10;;;;;;;0.73;0.70;;;;;;;17.85;80.42;101932.34;20829379;28;20050;-60
2022/07/15 15:46:32;;;;;;;1.35;0.77;;;;;;;17.95;79.19;101928.03;20827253;28;20048;-59
2022/07/15 15:56:54;;;;;;;1.38;0.60;;;;;;;18.18;79.47;101920.00;20822804;28;20037;-61
2022/07/15 16:07:15;;;;;;;2.05;0.98;;;;;;;18.37;80.53;101908.84;20822553;28;20441;-59
2022/07/15 16:17:37;;;;;;;2.53;0.70;;;;;;;18.47;80.62;101916.78;20839980;28;20050;-60
2022/07/15 16:28:04;;;;;;;3.88;0.93;;;;;;;18.44;79.57;101911.75;20825808;28;20067;-61
2022/07/15 16:38:26;;;;;;;1.35;0.60;;;;;;;18.46;79.41;101908.97;20841141;28;20055;-60
2022/07/15 16:48:47;;;;;;;1.73;0.60;;;;;;;18.58;78.05;101897.41;20828631;28;20410;-61
2022/07/15 16:59:09;;;;;;;1.90;0.70;;;;;;;18.51;78.34;101894.44;20839398;28;20041;-61
2022/07/15 17:09:32;;;;;;;1.70;0.45;;;;;;;18.55;77.98;101881.84;20841174;28;20146;-59
2022/07/15 17:19:54;;;;;;;1.67;0.77;;;;;;;18.51;77.70;101869.84;20834078;28;20045;-61
2022/07/15 17:30:15;;;;;;;1.48;0.75;;;;;;;18.57;77.36;101862.25;20835848;28;20074;-60
2022/07/15 17:40:44;;;;;;;3.45;1.05;;;;;;;18.64;77.30;101855.47;20831568;28;20095;-62
2022/07/15 17:51:05;;;;;;;2.13;0.90;;;;;;;18.66;76.74;101856.22;20824519;28;20409;-59
2022/07/15 18:01:27;;;;;;;2.15;0.60;;;;;;;18.61;75.94;101853.13;20822242;28;20049;-60
2022/07/15 18:11:52;;;;;;;2.58;0.90;;;;;;;18.65;76.21;101849.25;20828168;28;20085;-61
2022/07/15 18:22:13;;;;;;;1.58;0.68;;;;;;;18.62;76.91;101831.03;20829926;28;20052;-61
2022/07/15 18:32:35;;;;;;;1.67;0.60;;;;;;;18.67;77.50;101817.44;20812583;28;20041;-60
2022/07/15 18:42:57;;;;;;;2.47;0.73;;;;;;;18.68;78.01;101819.94;20821091;28;20132;-62
2022/07/15 18:53:21;;;;;;;2.35;0.70;;;;;;;18.61;78.75;101808.22;20824735;28;20041;-61
2022/07/15 19:03:43;;;;;;;1.60;0.65;;;;;;;18.58;78.12;101803.19;20820486;28;20037;-62
2022/07/15 19:14:05;;;;;;;2.28;0.68;;;;;;;18.54;79.20;101793.00;20832656;28;20107;-61
2022/07/15 19:24:28;;;;;;;4.20;1.15;;;;;;;18.47;79.78;101784.75;20811707;28;20057;-63
2022/07/15 19:34:50;;;;;;;3.75;1.27;;;;;;;18.38;80.35;101778.50;20822108;28;21139;-61
2022/07/15 19:45:14;;;;;;;2.92;1.20;;;;;;;18.40;80.51;101788.00;20826014;28;20045;-60
2022/07/15 19:55:36;;;;;;;1.83;0.70;;;;;;;18.30;80.70;101775.66;20840588;28;20057;-61
2022/07/15 20:05:57;;;;;;;2.08;0.80;;;;;;;18.31;81.08;101772.91;20836324;28;20076;-61
2022/07/15 20:16:19;;;;;;;4.55;0.70;;;;;;;18.31;80.94;101764.16;20835487;28;20067;-63
2022/07/15 20:26:41;;;;;;;2.03;0.93;;;;;;;18.31;80.73;101766.78;20828627;28;20515;-61
2022/07/15 20:37:04;;;;;;;1.30;0.90;;;;;;;18.26;81.23;101759.25;20844636;28;20657;-61
2022/07/15 20:47:25;;;;;;;4.45;1.00;;;;;;;18.23;80.08;101745.44;20839348;28;20509;-61
2022/07/15 20:57:47;;;;;;;4.15;1.20;;;;;;;18.16;81.54;101752.16;20847945;28;20057;-61
2022/07/15 21:08:09;;;;;;;5.93;1.30;;;;;;;18.18;81.10;101737.03;20850273;28;20080;-61
2022/07/15 21:18:31;;;;;;;2.83;1.20;;;;;;;18.07;81.40;101724.72;20845439;28;20049;-61
2022/07/15 21:28:53;;;;;;;3.00;1.17;;;;;;;18.02;81.81;101718.13;20847962;28;20111;-61
2022/07/15 21:39:14;;;;;;;4.90;1.52;;;;;;;18.00;81.00;101725.34;20847353;28;20055;-61
2022/07/15 21:49:36;;;;;;;4.45;1.40;;;;;;;17.95;80.88;101711.66;20840088;28;20059;-61
2022/07/15 21:59:58;;;;;;;3.97;1.45;;;;;;;17.96;80.78;101694.88;20841464;28;20151;-61
2022/07/15 22:10:20;;;;;;;5.43;1.58;;;;;;;18.03;80.34;101704.81;20844669;28;20053;-61
2022/07/15 22:20:42;;;;;;;7.50;1.50;;;;;;;18.02;79.36;101699.66;20835424;28;20049;-61
2022/07/15 22:31:04;;;;;;;4.32;1.52;;;;;;;17.89;78.93;101696.34;20838451;28;20047;-62
2022/07/15 22:41:25;;;;;;;3.05;1.30;;;;;;;17.84;78.91;101711.69;20821410;28;20080;-60
2022/07/15 22:51:47;;;;;;;4.57;0.98;;;;;;;17.79;76.78;101708.59;20831868;28;20509;-60
2022/07/15 23:02:08;;;;;;;6.38;1.25;;;;;;;17.49;79.02;101705.75;20831735;28;20051;-60
2022/07/15 23:12:30;;;;;;;3.67;0.88;;;;;;;17.36;79.02;101686.59;20844722;28;20052;-60
2022/07/15 23:22:52;;;;;;;5.47;1.40;;;;;;;17.47;78.72;101683.94;20838676;28;20386;-61
2022/07/15 23:33:14;;;;;;;4.40;1.20;;;;;;;17.46;78.38;101671.75;20836796;28;20055;-60
2022/07/15 23:43:35;;;;;;;4.15;1.27;;;;;;;17.46;77.75;101667.28;20839069;28;20041;-60
2022/07/15 23:53:57;;;;;;;3.78;1.10;;;;;;;17.41;77.69;101658.06;20838948;28;20048;-60
